Terminal Aerodrome Forecast
Issued by NWS Melbourne, FL

Home | Current Version | Previous Version | Text Only | Print | Product List | Glossary On
Versions: 1 2 3 4 5 6 7 8 9 10 11 12
000
FTUS42 KMLB 291700
TAFMLB
TAF
KMLB 291721Z 2918/3018 09010KT P6SM SCT040 SCT070
     FM292100 10009KT P6SM VCSH SCT040 BKN100
     FM300100 19004KT P6SM SCT060 BKN200
     FM300400 VRB02KT P6SM FEW040 SCT250=

USA.gov is the U.S. government's official web portal to all federal, state and local government web resources and services.